createdAt,value
2018-12-21T00:02:44.421Z,33.88
2018-12-21T00:05:47.540Z,33.81
2018-12-21T00:08:52.996Z,33.71
2018-12-21T00:11:56.205Z,34.20
2018-12-21T00:14:59.527Z,33.70
2018-12-21T00:18:02.799Z,33.37
2018-12-21T00:21:05.966Z,33.46
2018-12-21T00:24:09.662Z,33.70
2018-12-21T00:27:13.180Z,33.58
2018-12-21T00:30:21.636Z,34.23
2018-12-21T00:33:30.637Z,34.41
2018-12-21T00:36:39.325Z,33.52
2018-12-21T00:39:48.454Z,34.14
2018-12-21T00:42:57.320Z,34.31
2018-12-21T00:46:05.919Z,34.22
2018-12-21T00:49:09.185Z,34.02
2018-12-21T00:52:12.547Z,33.70
2018-12-21T00:55:15.580Z,34.43
2018-12-21T00:58:18.908Z,34.09
2018-12-21T01:01:22.384Z,33.57
2018-12-21T01:04:25.752Z,33.83
2018-12-21T01:07:28.752Z,34.10
2018-12-21T01:10:31.710Z,33.62
2018-12-21T01:13:34.835Z,33.94
2018-12-21T01:16:38.003Z,34.43
2018-12-21T01:19:41.007Z,33.88
2018-12-21T01:22:44.056Z,33.66
2018-12-21T01:25:47.114Z,33.87
2018-12-21T01:28:50.071Z,34.08
2018-12-21T01:31:53.027Z,33.93
2018-12-21T01:34:56.050Z,33.87
2018-12-21T01:37:59.272Z,34.46
2018-12-21T01:41:03.303Z,34.38
2018-12-21T01:44:06.441Z,34.45
2018-12-21T01:47:09.402Z,33.99
2018-12-21T01:50:12.675Z,34.48
2018-12-21T01:53:16.435Z,33.86
2018-12-21T01:56:20.991Z,34.05
2018-12-21T01:59:24.570Z,33.70
2018-12-21T02:02:28.116Z,34.56
2018-12-21T02:05:32.650Z,33.80
2018-12-21T02:08:36.559Z,34.28
2018-12-21T02:11:40.038Z,34.48
2018-12-21T02:14:43.811Z,34.23
2018-12-21T02:17:47.369Z,33.65
2018-12-21T02:20:50.978Z,33.75
2018-12-21T02:23:54.429Z,34.30
2018-12-21T02:26:58.134Z,34.46
2018-12-21T02:30:01.510Z,34.18
2018-12-21T02:33:05.141Z,33.83
2018-12-21T02:36:08.648Z,34.35
2018-12-21T02:39:12.338Z,34.35
2018-12-21T02:42:16.128Z,34.46
2018-12-21T02:45:19.141Z,34.61
2018-12-21T02:48:22.529Z,34.51
2018-12-21T02:51:25.899Z,34.50
2018-12-21T02:54:29.231Z,34.45
2018-12-21T02:57:33.063Z,34.48
2018-12-21T03:00:36.714Z,33.88
2018-12-21T03:03:40.284Z,34.50
2018-12-21T03:06:43.684Z,34.06
2018-12-21T03:09:47.110Z,34.48
2018-12-21T03:12:51.975Z,33.83
2018-12-21T03:15:55.336Z,33.85
2018-12-21T03:18:59.433Z,33.74
2018-12-21T03:22:02.972Z,34.53
2018-12-21T03:25:06.410Z,34.45
2018-12-21T03:28:10.737Z,33.84
2018-12-21T03:31:15.697Z,34.70
2018-12-21T03:34:19.497Z,34.13
2018-12-21T03:37:23.456Z,34.64
2018-12-21T03:40:26.966Z,34.33
2018-12-21T03:43:30.340Z,33.97
2018-12-21T03:46:33.591Z,33.96
2018-12-21T03:49:38.905Z,34.45
2018-12-21T03:52:43.500Z,34.64
2018-12-21T03:55:47.664Z,34.71
2018-12-21T03:58:51.246Z,33.94
2018-12-21T04:01:55.371Z,34.45
2018-12-21T04:04:58.582Z,34.67
2018-12-21T04:08:01.715Z,34.41
2018-12-21T04:11:04.762Z,33.98
2018-12-21T04:14:07.964Z,34.40
2018-12-21T04:17:11.053Z,34.59
2018-12-21T04:20:14.408Z,34.62
2018-12-21T04:23:17.431Z,34.10
2018-12-21T04:26:20.448Z,34.20
2018-12-21T04:29:23.523Z,34.67
2018-12-21T04:32:26.495Z,34.08
2018-12-21T04:35:29.668Z,34.20
2018-12-21T04:38:32.966Z,34.74
2018-12-21T04:41:36.043Z,34.07
2018-12-21T04:44:39.143Z,33.96
2018-12-21T04:47:42.092Z,34.72
2018-12-21T04:50:45.155Z,34.53
2018-12-21T04:53:49.298Z,34.50
2018-12-21T04:56:52.511Z,34.13
2018-12-21T04:59:55.619Z,34.33
2018-12-21T05:02:58.644Z,33.98
2018-12-21T05:06:02.745Z,33.91
2018-12-21T05:09:06.413Z,34.17
2018-12-21T05:12:11.503Z,34.69
2018-12-21T05:15:14.608Z,34.75
2018-12-21T05:18:18.667Z,34.39
2018-12-21T05:21:22.808Z,34.06
2018-12-21T05:24:25.814Z,34.05
2018-12-21T05:27:28.972Z,34.47
2018-12-21T05:30:32.204Z,34.19
2018-12-21T05:33:35.191Z,34.28
2018-12-21T05:36:38.627Z,34.68
2018-12-21T05:39:41.720Z,34.46
2018-12-21T05:42:47.971Z,34.58
2018-12-21T05:45:50.934Z,34.80
2018-12-21T05:48:53.904Z,34.77
2018-12-21T05:51:58.036Z,34.72
2018-12-21T05:55:01.222Z,34.64
2018-12-21T05:58:05.234Z,34.63
2018-12-21T06:01:08.294Z,34.74
2018-12-21T06:04:11.444Z,34.32
2018-12-21T06:07:14.619Z,34.72
2018-12-21T06:10:18.727Z,34.65
2018-12-21T06:13:21.717Z,33.98
2018-12-21T06:16:24.758Z,34.09
2018-12-21T06:19:27.705Z,34.23
2018-12-21T06:22:31.761Z,34.18
2018-12-21T06:25:35.203Z,34.11
2018-12-21T06:28:38.205Z,34.05
2018-12-21T06:31:41.435Z,33.98
2018-12-21T06:34:44.704Z,34.79
2018-12-21T06:37:49.721Z,34.58
2018-12-21T06:40:52.668Z,33.96
2018-12-21T06:43:55.793Z,34.56
2018-12-21T06:46:59.821Z,34.24
2018-12-21T06:50:03.123Z,34.18
2018-12-21T06:53:06.364Z,34.43
2018-12-21T06:56:09.402Z,34.09
2018-12-21T06:59:12.542Z,34.31
2018-12-21T07:02:15.667Z,34.01
2018-12-21T07:05:18.859Z,34.17
2018-12-21T07:08:21.855Z,34.30
2018-12-21T07:11:25.388Z,34.59
2018-12-21T07:14:29.130Z,34.18
2018-12-21T07:17:32.750Z,34.77
2018-12-21T07:20:36.382Z,34.73
2018-12-21T07:23:40.864Z,34.90
2018-12-21T07:26:44.322Z,34.11
2018-12-21T07:29:48.196Z,34.83
2018-12-21T07:32:52.149Z,34.80
2018-12-21T07:35:55.871Z,34.63
2018-12-21T07:38:59.512Z,34.21
2018-12-21T07:42:03.259Z,34.37
2018-12-21T07:45:08.209Z,34.55
2018-12-21T07:48:11.843Z,34.89
2018-12-21T07:51:16.392Z,34.24
2018-12-21T07:54:20.018Z,34.01
2018-12-21T07:57:23.665Z,34.65
2018-12-21T08:00:27.235Z,34.67
2018-12-21T08:03:30.411Z,34.64
2018-12-21T08:06:33.842Z,34.84
2018-12-21T08:09:37.068Z,34.41
2018-12-21T08:12:41.048Z,34.38
2018-12-21T08:15:44.650Z,34.80
2018-12-21T08:18:48.247Z,34.20
2018-12-21T08:21:51.696Z,34.20
2018-12-21T08:24:55.081Z,34.50
2018-12-21T08:27:58.695Z,33.97
2018-12-21T08:31:02.209Z,34.26
2018-12-21T08:34:05.739Z,34.48
2018-12-21T08:37:09.037Z,34.53
2018-12-21T08:40:12.515Z,34.43
2018-12-21T08:43:16.003Z,34.17
2018-12-21T08:46:19.596Z,34.78
2018-12-21T08:49:22.886Z,34.43
2018-12-21T08:52:26.463Z,34.24
2018-12-21T08:55:29.734Z,34.60
2018-12-21T08:58:33.188Z,34.05
2018-12-21T09:01:37.691Z,34.31
2018-12-21T09:04:41.445Z,34.44
2018-12-21T09:07:45.203Z,33.94
2018-12-21T09:10:48.693Z,34.63
2018-12-21T09:13:54.580Z,34.17
2018-12-21T09:16:58.082Z,34.27
2018-12-21T09:20:01.817Z,34.64
2018-12-21T09:23:05.328Z,34.57
2018-12-21T09:26:09.755Z,34.29
2018-12-21T09:29:13.401Z,34.76
2018-12-21T09:32:16.885Z,34.62
2018-12-21T09:35:20.623Z,34.88
2018-12-21T09:38:24.299Z,34.37
2018-12-21T09:41:27.540Z,34.33
2018-12-21T09:44:31.010Z,34.29
2018-12-21T09:47:34.390Z,34.84
2018-12-21T09:50:39.048Z,34.72
2018-12-21T09:53:42.363Z,34.24
2018-12-21T09:56:45.827Z,34.53
2018-12-21T09:59:49.083Z,34.31
2018-12-21T10:02:52.665Z,34.10
2018-12-21T10:05:56.431Z,34.61
2018-12-21T10:09:00.109Z,34.55
2018-12-21T10:12:04.267Z,34.34
2018-12-21T10:15:08.959Z,34.37
2018-12-21T10:18:12.668Z,34.08
2018-12-21T10:21:16.236Z,34.41
2018-12-21T10:24:19.395Z,34.17
2018-12-21T10:27:23.427Z,34.53
2018-12-21T10:30:27.225Z,34.26
2018-12-21T10:33:30.835Z,34.69
2018-12-21T10:36:34.482Z,34.26
2018-12-21T10:39:38.088Z,34.32
2018-12-21T10:42:41.547Z,34.96
2018-12-21T10:45:46.108Z,34.32
2018-12-21T10:48:49.658Z,34.76
2018-12-21T10:51:53.102Z,34.23
2018-12-21T10:54:58.810Z,34.89
2018-12-21T10:58:02.389Z,34.33
2018-12-21T11:01:05.831Z,34.03
2018-12-21T11:04:09.443Z,34.60
2018-12-21T11:07:12.928Z,34.82
2018-12-21T11:10:16.324Z,34.07
2018-12-21T11:13:23.908Z,34.65
2018-12-21T11:16:27.344Z,34.18
2018-12-21T11:19:30.972Z,34.56
2018-12-21T11:22:34.518Z,34.65
2018-12-21T11:25:37.826Z,33.93
2018-12-21T11:28:41.111Z,33.68
2018-12-21T11:31:45.216Z,34.15
2018-12-21T11:34:48.343Z,34.18
2018-12-21T11:37:52.456Z,33.92
2018-12-21T11:40:55.474Z,34.15
2018-12-21T11:43:59.567Z,34.44
2018-12-21T11:47:02.696Z,33.87
2018-12-21T11:50:07.809Z,33.95
2018-12-21T11:53:11.915Z,34.73
2018-12-21T11:56:15.046Z,34.32
2018-12-21T11:59:18.066Z,34.59
2018-12-21T12:02:22.199Z,33.81
2018-12-21T12:05:25.298Z,34.60
2018-12-21T12:08:28.500Z,33.79
2018-12-21T12:11:31.563Z,34.49
2018-12-21T12:14:34.595Z,34.37
2018-12-21T12:17:37.751Z,33.87
2018-12-21T12:20:40.867Z,34.32
2018-12-21T12:23:44.997Z,34.22
2018-12-21T12:26:48.068Z,34.00
2018-12-21T12:29:51.167Z,34.20
2018-12-21T12:32:54.238Z,34.58
2018-12-21T12:35:58.345Z,34.23
2018-12-21T12:39:01.332Z,34.58
2018-12-21T12:45:17.525Z,34.59
2018-12-21T12:48:20.827Z,33.98
2018-12-21T12:51:23.958Z,34.60
2018-12-21T12:54:27.323Z,34.70
2018-12-21T12:57:30.423Z,34.30
2018-12-21T13:00:33.607Z,34.85
2018-12-21T13:03:36.906Z,34.97
2018-12-21T13:06:41.140Z,34.80
2018-12-21T13:09:48.023Z,34.73
2018-12-21T13:12:51.289Z,34.51
2018-12-21T13:16:00.463Z,34.25
2018-12-21T13:19:03.513Z,34.60
2018-12-21T13:22:07.656Z,33.99
2018-12-21T13:25:17.306Z,34.47
2018-12-21T13:28:21.517Z,34.01
2018-12-21T13:31:24.812Z,34.75
2018-12-21T13:34:28.011Z,34.47
2018-12-21T13:37:32.070Z,34.19
2018-12-21T13:40:37.323Z,34.71
2018-12-21T13:43:40.279Z,34.54
2018-12-21T13:46:43.381Z,34.05
2018-12-21T13:49:46.544Z,34.23
2018-12-21T13:52:49.628Z,34.16
2018-12-21T13:55:53.776Z,34.70
2018-12-21T13:58:56.908Z,34.42
2018-12-21T14:02:00.051Z,34.19
2018-12-21T14:05:03.162Z,34.77
2018-12-21T14:08:07.309Z,34.27
2018-12-21T14:11:11.454Z,33.77
2018-12-21T14:14:16.845Z,34.00
2018-12-21T14:17:23.799Z,34.01
2018-12-21T14:20:26.799Z,33.79
2018-12-21T14:23:29.967Z,33.69
2018-12-21T14:26:32.976Z,34.52
2018-12-21T14:29:36.156Z,33.74
2018-12-21T14:32:41.194Z,33.70
2018-12-21T14:35:44.299Z,33.65
2018-12-21T14:38:47.476Z,33.58
2018-12-21T14:41:50.533Z,34.32
2018-12-21T14:44:53.562Z,33.50
2018-12-21T14:47:57.695Z,33.50
2018-12-21T14:51:01.791Z,34.17
2018-12-21T14:54:04.914Z,33.47
2018-12-21T14:57:08.074Z,33.54
2018-12-21T15:00:13.230Z,33.17
2018-12-21T15:03:16.322Z,33.70
2018-12-21T15:06:20.340Z,33.49
2018-12-21T15:09:23.583Z,33.89
2018-12-21T15:12:26.815Z,33.31
2018-12-21T15:15:30.024Z,33.12
2018-12-21T15:18:33.144Z,33.62
2018-12-21T15:21:36.199Z,33.48
2018-12-21T15:24:39.435Z,33.68
2018-12-21T15:27:43.392Z,32.87
2018-12-21T15:30:46.493Z,33.60
2018-12-21T15:33:49.698Z,33.20
2018-12-21T15:36:52.683Z,32.84
2018-12-21T15:39:55.895Z,33.04
2018-12-21T15:42:58.860Z,33.72
2018-12-21T15:46:02.983Z,32.98
2018-12-21T15:49:06.088Z,33.89
2018-12-21T15:52:09.438Z,33.99
2018-12-21T15:55:12.630Z,33.16
2018-12-21T15:58:15.866Z,33.03
2018-12-21T16:01:18.858Z,33.84
2018-12-21T16:04:22.147Z,33.71
2018-12-21T16:07:25.250Z,33.39
2018-12-21T16:10:28.435Z,33.94
2018-12-21T16:13:32.443Z,32.81
2018-12-21T16:16:35.535Z,33.44
2018-12-21T16:19:38.775Z,33.51
2018-12-21T16:22:42.625Z,33.25
2018-12-21T16:25:45.943Z,33.55
2018-12-21T16:28:50.239Z,33.70
2018-12-21T16:31:53.227Z,33.62
2018-12-21T16:34:56.359Z,33.21
2018-12-21T16:37:59.570Z,33.78
2018-12-21T16:41:02.757Z,33.73
2018-12-21T16:44:05.704Z,33.33
2018-12-21T16:47:10.108Z,33.44
2018-12-21T16:50:13.809Z,33.62
2018-12-21T16:53:16.930Z,33.88
2018-12-21T16:56:20.029Z,32.77
2018-12-21T16:59:23.148Z,33.38
2018-12-21T17:02:26.212Z,33.65
2018-12-21T17:05:30.311Z,33.31
2018-12-21T17:08:34.568Z,33.25
2018-12-21T17:11:37.552Z,35.43
2018-12-21T17:14:40.649Z,34.10
2018-12-21T17:17:43.909Z,33.49
2018-12-21T17:20:46.999Z,35.56
2018-12-21T17:23:50.632Z,35.47
2018-12-21T17:26:53.807Z,34.51
2018-12-21T17:29:57.936Z,33.19
2018-12-21T17:33:01.044Z,32.89
2018-12-21T17:36:05.222Z,32.97
2018-12-21T17:39:08.685Z,33.15
2018-12-21T17:42:12.779Z,32.90
2018-12-21T17:45:15.859Z,32.89
2018-12-21T17:48:19.944Z,31.90
2018-12-21T17:51:22.960Z,32.31
2018-12-21T17:54:26.052Z,33.20
2018-12-21T17:57:29.038Z,32.96
2018-12-21T18:00:33.033Z,32.87
2018-12-21T18:03:45.822Z,32.70
2018-12-21T18:06:49.039Z,32.83
2018-12-21T18:09:53.231Z,32.91
2018-12-21T18:12:57.538Z,32.84
2018-12-21T18:16:00.784Z,32.33
2018-12-21T18:19:03.775Z,32.37
2018-12-21T18:22:13.551Z,32.13
2018-12-21T18:25:19.996Z,32.67
2018-12-21T18:28:27.313Z,31.96
2018-12-21T18:31:42.776Z,32.04
2018-12-21T18:34:45.839Z,31.58
2018-12-21T18:37:56.282Z,32.43
2018-12-21T18:41:01.259Z,32.54
2018-12-21T18:44:04.314Z,32.16
2018-12-21T18:47:07.547Z,31.58
2018-12-21T18:50:11.707Z,31.30
2018-12-21T18:53:14.851Z,31.78
2018-12-21T18:56:21.923Z,31.36
2018-12-21T18:59:25.044Z,31.33
2018-12-21T19:02:28.308Z,32.17
2018-12-21T19:05:31.330Z,31.42
2018-12-21T19:08:34.394Z,31.89
2018-12-21T19:11:37.495Z,31.38
2018-12-21T19:14:41.923Z,30.97
2018-12-21T19:17:45.351Z,31.39
2018-12-21T19:20:48.324Z,32.12
2018-12-21T19:23:51.293Z,31.51
2018-12-21T19:26:56.527Z,31.31
2018-12-21T19:29:59.522Z,31.34
2018-12-21T19:33:02.502Z,31.12
2018-12-21T19:36:05.612Z,31.05
2018-12-21T19:42:23.436Z,31.04
2018-12-21T19:45:26.444Z,31.35
2018-12-21T19:48:29.531Z,30.93
2018-12-21T19:51:32.633Z,31.80
2018-12-21T19:54:35.972Z,31.66
2018-12-21T19:57:39.012Z,31.03
2018-12-21T20:00:42.135Z,31.46
2018-12-21T20:03:45.310Z,32.02
2018-12-21T20:06:48.401Z,31.30
2018-12-21T20:09:52.404Z,30.92
2018-12-21T20:12:55.586Z,31.10
2018-12-21T20:15:58.783Z,31.71
2018-12-21T20:19:02.072Z,30.83
2018-12-21T20:22:05.275Z,31.24
2018-12-21T20:25:09.752Z,30.95
2018-12-21T20:28:12.799Z,30.70
2018-12-21T20:31:17.117Z,30.82
2018-12-21T20:34:20.219Z,31.57
2018-12-21T20:37:23.207Z,30.77
2018-12-21T20:40:26.171Z,30.51
2018-12-21T20:43:33.287Z,31.41
2018-12-21T20:46:36.411Z,31.00
2018-12-21T20:49:39.719Z,30.72
2018-12-21T20:52:42.851Z,31.44
2018-12-21T20:55:45.828Z,31.37
2018-12-21T20:58:53.395Z,30.89
2018-12-21T21:01:56.659Z,31.05
2018-12-21T21:04:59.726Z,31.75
2018-12-21T21:08:02.923Z,30.96
2018-12-21T21:11:06.926Z,31.62
2018-12-21T21:17:24.338Z,31.45
2018-12-21T21:20:27.378Z,31.38
2018-12-21T21:23:30.502Z,31.81
2018-12-21T21:26:34.487Z,31.35
2018-12-21T21:29:37.711Z,31.68
2018-12-21T21:32:40.867Z,31.27
2018-12-21T21:35:43.932Z,32.02
2018-12-21T21:38:47.871Z,32.12
2018-12-21T21:41:53.104Z,31.27
2018-12-21T21:44:56.239Z,31.83
2018-12-21T21:47:59.182Z,31.92
2018-12-21T21:51:02.353Z,31.14
2018-12-21T21:54:05.401Z,31.14
2018-12-21T21:57:08.478Z,31.99
2018-12-21T22:00:13.217Z,31.74
2018-12-21T22:03:16.233Z,31.15
2018-12-21T22:06:19.455Z,32.00
2018-12-21T22:09:22.462Z,31.88
2018-12-21T22:12:25.495Z,31.99
2018-12-21T22:15:28.551Z,31.57
2018-12-21T22:18:33.575Z,31.26
2018-12-21T22:21:36.656Z,31.73
2018-12-21T22:24:39.855Z,31.38
2018-12-21T22:27:47.948Z,32.12
2018-12-21T22:30:49.822Z,31.51
2018-12-21T22:33:52.944Z,32.00
2018-12-21T22:36:55.983Z,31.50
2018-12-21T22:39:59.015Z,31.80
2018-12-21T22:43:01.984Z,32.13
2018-12-21T22:46:05.056Z,32.24
2018-12-21T22:49:08.336Z,32.07
2018-12-21T22:52:11.362Z,32.20
2018-12-21T22:55:14.358Z,32.12
2018-12-21T22:58:17.338Z,31.73
2018-12-21T23:01:20.809Z,32.09
2018-12-21T23:04:23.814Z,31.46
2018-12-21T23:07:26.819Z,31.71
2018-12-21T23:10:30.941Z,32.27
2018-12-21T23:13:37.704Z,31.98
2018-12-21T23:16:40.891Z,31.48
2018-12-21T23:19:44.104Z,32.18
2018-12-21T23:22:47.290Z,32.24
2018-12-21T23:25:50.326Z,31.47
2018-12-21T23:28:53.575Z,31.48
2018-12-21T23:31:56.571Z,31.82
2018-12-21T23:34:59.752Z,31.58
2018-12-21T23:38:02.747Z,32.28
2018-12-21T23:41:05.739Z,31.44
2018-12-21T23:44:09.862Z,31.98
2018-12-21T23:47:13.073Z,31.42
2018-12-21T23:50:16.178Z,32.08
2018-12-21T23:53:19.227Z,32.18
2018-12-21T23:56:22.327Z,31.58
2018-12-21T23:59:25.579Z,32.18
